Time;durP1;ratioP1;P1;durP2;ratioP2;P2;SDS_P1;SDS_P2;PMS_P1;PMS_P2;Temp;Humidity;BMP_temperature;BMP_pressure;BME280_temperature;BME280_humidity;BME280_pressure;Samples;Min_cycle;Max_cycle;Signal;HPM_P1;HPM_P2
2021/06/09 00:01:00;;;;;;;;;;;23.90;58.30;;;;;;5050361;28;19945;-63
2021/06/09 00:03:26;;;;;;;;;;;23.90;58.30;;;;;;5066126;28;19920;-65
2021/06/09 00:05:51;;;;;;;;;;;23.90;58.30;;;;;;5074694;28;19924;-63
2021/06/09 00:08:17;;;;;;;;;;;23.90;58.30;;;;;;5024653;28;20100;-60
2021/06/09 00:10:42;;;;;;;;;;;23.90;58.30;;;;;;5041589;28;19940;-64
2021/06/09 00:13:08;;;;;;;;;;;23.90;58.30;;;;;;5064140;28;19920;-65
2021/06/09 00:15:33;;;;;;;;;;;23.90;58.30;;;;;;5062076;28;19921;-63
2021/06/09 00:17:59;;;;;;;;;;;23.90;58.30;;;;;;5043272;28;19939;-63
2021/06/09 00:20:25;;;;;;;;;;;23.90;58.30;;;;;;5061575;28;20805;-63
2021/06/09 00:22:50;;;;;;;;;;;23.90;58.30;;;;;;5066802;28;19962;-63
2021/06/09 00:25:17;;;;;;;;;;;23.90;58.20;;;;;;5050915;28;19924;-65
2021/06/09 00:27:46;;;;;;;;;;;23.90;58.30;;;;;;5042610;28;19921;-66
2021/06/09 00:30:13;;;;;;;;;;;23.90;58.20;;;;;;5038488;28;19920;-65
2021/06/09 00:32:38;;;;;;;;;;;23.90;58.30;;;;;;5059828;28;19920;-65
2021/06/09 00:35:04;;;;;;;;;;;23.90;58.20;;;;;;5069806;28;19962;-63
2021/06/09 00:37:29;;;;;;;;;;;23.90;58.20;;;;;;5064583;28;19924;-65
2021/06/09 00:39:55;;;;;;;;;;;23.90;58.20;;;;;;5047610;28;19924;-66
2021/06/09 00:42:20;;;;;;;;;;;23.90;58.20;;;;;;5060222;28;20619;-65
2021/06/09 00:44:46;;;;;;;;;;;23.90;58.20;;;;;;5048712;28;19920;-63
2021/06/09 00:47:11;;;;;;;;;;;23.90;58.20;;;;;;5059780;28;20011;-66
2021/06/09 00:49:37;;;;;;;;;;;23.90;58.20;;;;;;5041220;28;19931;-66
2021/06/09 00:52:03;;;;;;;;;;;23.90;58.20;;;;;;5044033;28;19942;-65
2021/06/09 00:54:28;;;;;;;;;;;23.90;58.20;;;;;;5044995;28;20708;-62
2021/06/09 00:56:53;;;;;;;;;;;23.90;58.20;;;;;;5065602;28;19927;-65
2021/06/09 00:59:19;;;;;;;;;;;23.90;58.20;;;;;;5060283;28;19929;-61
2021/06/09 01:01:44;;;;;;;;;;;23.90;58.20;;;;;;5042047;28;19918;-63
2021/06/09 01:04:10;;;;;;;;;;;23.90;58.20;;;;;;5041213;28;20560;-65
2021/06/09 01:06:35;;;;;;;;;;;23.90;58.20;;;;;;5064349;28;19924;-63
2021/06/09 01:09:01;;;;;;;;;;;23.90;58.20;;;;;;5063966;28;20247;-63
2021/06/09 01:11:26;;;;;;;;;;;23.90;58.20;;;;;;5059341;28;19920;-66
2021/06/09 01:13:52;;;;;;;;;;;23.80;58.10;;;;;;5041699;28;20201;-64
2021/06/09 01:16:17;;;;;;;;;;;23.90;58.20;;;;;;5046743;28;20145;-66
2021/06/09 01:18:43;;;;;;;;;;;23.80;58.10;;;;;;5074470;28;19923;-64
2021/06/09 01:21:09;;;;;;;;;;;23.90;58.10;;;;;;5040765;28;19928;-64
2021/06/09 01:23:34;;;;;;;;;;;23.90;58.10;;;;;;5059595;28;19921;-65
2021/06/09 01:26:00;;;;;;;;;;;23.90;58.10;;;;;;5022335;28;19928;-65
2021/06/09 01:28:25;;;;;;;;;;;23.90;58.10;;;;;;5059397;28;20405;-65
2021/06/09 01:30:51;;;;;;;;;;;23.90;58.10;;;;;;5044685;28;19917;-66
2021/06/09 01:33:17;;;;;;;;;;;23.90;58.10;;;;;;5044296;28;20194;-62
2021/06/09 01:35:43;;;;;;;;;;;23.90;58.10;;;;;;5046981;28;19916;-65
2021/06/09 01:38:09;;;;;;;;;;;23.90;58.10;;;;;;5061056;22;19924;-74
2021/06/09 01:40:34;;;;;;;;;;;23.90;58.10;;;;;;5050050;28;19927;-74
2021/06/09 01:43:02;;;;;;;;;;;23.90;58.10;;;;;;5050846;28;20369;-75
2021/06/09 01:45:28;;;;;;;;;;;23.90;58.10;;;;;;5061571;28;19975;-75
2021/06/09 01:47:53;;;;;;;;;;;23.90;58.10;;;;;;5029143;28;20508;-76
2021/06/09 01:50:19;;;;;;;;;;;23.90;58.00;;;;;;5043204;28;19920;-76
2021/06/09 01:52:44;;;;;;;;;;;23.90;58.10;;;;;;5042194;28;19955;-74
2021/06/09 01:55:10;;;;;;;;;;;23.90;58.00;;;;;;5068747;28;20022;-77
2021/06/09 01:57:35;;;;;;;;;;;23.90;58.10;;;;;;5045072;28;20015;-77
2021/06/09 02:00:01;;;;;;;;;;;23.90;58.00;;;;;;5054899;28;19917;-76
2021/06/09 02:02:27;;;;;;;;;;;23.90;58.00;;;;;;5043365;28;19945;-76
2021/06/09 02:04:52;;;;;;;;;;;23.90;58.00;;;;;;5074831;28;19962;-78
2021/06/09 02:07:18;;;;;;;;;;;23.90;58.00;;;;;;5066253;28;19951;-75
2021/06/09 02:09:43;;;;;;;;;;;23.90;58.10;;;;;;5054872;28;20760;-75
2021/06/09 02:12:09;;;;;;;;;;;23.90;58.00;;;;;;5045277;28;19923;-75
2021/06/09 02:14:35;;;;;;;;;;;23.80;58.00;;;;;;5074444;28;20381;-75
2021/06/09 02:17:00;;;;;;;;;;;23.90;58.00;;;;;;5064396;28;19948;-76
2021/06/09 02:19:26;;;;;;;;;;;23.90;58.00;;;;;;5049542;28;19963;-76
2021/06/09 02:21:51;;;;;;;;;;;23.90;58.00;;;;;;5064174;28;19920;-76
2021/06/09 02:24:17;;;;;;;;;;;23.90;58.10;;;;;;5077560;28;20292;-77
2021/06/09 02:26:42;;;;;;;;;;;23.90;58.00;;;;;;5045009;28;19924;-76
2021/06/09 02:29:08;;;;;;;;;;;23.90;58.10;;;;;;5054373;28;19927;-76
2021/06/09 02:31:34;;;;;;;;;;;23.90;58.10;;;;;;5050886;28;19920;-74
2021/06/09 02:33:59;;;;;;;;;;;23.90;58.00;;;;;;5047670;28;19920;-77
2021/06/09 02:36:25;;;;;;;;;;;23.90;58.10;;;;;;5043059;28;20867;-77
2021/06/09 02:38:51;;;;;;;;;;;23.80;58.00;;;;;;5051318;28;20391;-76
2021/06/09 02:41:16;;;;;;;;;;;23.80;58.00;;;;;;5042493;28;19921;-76
2021/06/09 02:43:42;;;;;;;;;;;23.90;58.00;;;;;;5062645;28;19925;-76
2021/06/09 02:46:11;;;;;;;;;;;23.90;58.00;;;;;;5060697;28;19920;-76
2021/06/09 02:48:37;;;;;;;;;;;23.80;58.00;;;;;;5058804;28;19969;-75
2021/06/09 02:51:03;;;;;;;;;;;23.90;58.10;;;;;;5047674;28;19916;-77
2021/06/09 02:53:32;;;;;;;;;;;23.90;58.10;;;;;;5055935;28;20372;-78
2021/06/09 02:56:17;;;;;;;;;;;23.90;58.10;;;;;;5075997;28;19954;-75
2021/06/09 02:58:45;;;;;;;;;;;23.80;58.00;;;;;;5048160;28;19920;-76
2021/06/09 03:01:11;;;;;;;;;;;23.80;58.00;;;;;;5055787;28;19920;-76
2021/06/09 03:03:39;;;;;;;;;;;23.90;58.10;;;;;;5030479;28;19924;-77
2021/06/09 03:06:24;;;;;;;;;;;23.90;58.10;;;;;;5046945;28;19925;-76
2021/06/09 03:08:56;;;;;;;;;;;23.90;58.10;;;;;;5068398;28;19924;-75
2021/06/09 03:11:23;;;;;;;;;;;23.80;58.10;;;;;;5039478;28;20004;-76
2021/06/09 03:14:03;;;;;;;;;;;23.90;58.20;;;;;;5078621;28;20027;-77
2021/06/09 03:16:40;;;;;;;;;;;23.80;58.10;;;;;;5050220;28;19952;-76
2021/06/09 03:19:06;;;;;;;;;;;23.80;58.10;;;;;;5045649;28;19916;-77
2021/06/09 03:21:37;;;;;;;;;;;23.80;58.10;;;;;;5045900;28;19920;-76
2021/06/09 03:24:04;;;;;;;;;;;23.80;58.10;;;;;;5045839;28;19921;-76
2021/06/09 03:26:40;;;;;;;;;;;23.80;58.10;;;;;;5041079;28;19931;-76
2021/06/09 03:29:10;;;;;;;;;;;23.80;58.10;;;;;;5036426;28;19920;-75
2021/06/09 03:31:41;;;;;;;;;;;23.80;58.10;;;;;;5055735;28;19919;-76
2021/06/09 03:34:07;;;;;;;;;;;23.80;58.20;;;;;;5066564;28;20873;-75
2021/06/09 03:36:33;;;;;;;;;;;23.80;58.30;;;;;;5050048;28;19920;-75
2021/06/09 03:39:03;;;;;;;;;;;23.80;58.50;;;;;;5045367;28;19986;-76
2021/06/09 03:41:30;;;;;;;;;;;23.80;58.50;;;;;;5054124;28;19987;-77
2021/06/09 03:43:55;;;;;;;;;;;23.80;59.10;;;;;;5042769;28;19927;-78
2021/06/09 03:46:21;;;;;;;;;;;23.80;58.50;;;;;;5042067;28;19924;-76
2021/06/09 03:48:47;;;;;;;;;;;23.80;58.50;;;;;;5043902;28;19963;-79
2021/06/09 03:51:12;;;;;;;;;;;23.80;58.50;;;;;;5047359;28;19928;-77
2021/06/09 03:53:38;;;;;;;;;;;23.80;58.50;;;;;;5028526;28;19925;-75
2021/06/09 03:56:04;;;;;;;;;;;23.80;58.40;;;;;;5043358;28;20096;-77
2021/06/09 03:58:29;;;;;;;;;;;23.80;58.50;;;;;;5042462;28;19955;-78
2021/06/09 04:00:55;;;;;;;;;;;23.80;58.50;;;;;;5077136;28;19928;-77
2021/06/09 04:03:21;;;;;;;;;;;23.80;58.50;;;;;;5051961;28;19920;-73
2021/06/09 04:05:46;;;;;;;;;;;23.80;58.50;;;;;;5052482;28;20443;-75
2021/06/09 04:08:12;;;;;;;;;;;23.80;58.30;;;;;;5047796;28;19917;-76
2021/06/09 04:10:37;;;;;;;;;;;23.80;58.20;;;;;;5046748;28;19920;-77
2021/06/09 04:13:03;;;;;;;;;;;23.90;58.30;;;;;;5054454;28;19920;-77
2021/06/09 04:15:28;;;;;;;;;;;23.90;58.30;;;;;;5048266;28;20752;-77
2021/06/09 04:17:54;;;;;;;;;;;23.90;58.30;;;;;;5051382;28;19959;-77
2021/06/09 04:20:23;;;;;;;;;;;23.90;58.40;;;;;;5060264;28;20400;-75
2021/06/09 04:22:48;;;;;;;;;;;23.90;58.40;;;;;;5069312;28;19927;-75
2021/06/09 04:25:13;;;;;;;;;;;23.90;58.50;;;;;;5033364;28;20298;-74
2021/06/09 04:27:39;;;;;;;;;;;23.90;58.60;;;;;;5071925;28;19920;-76
2021/06/09 04:30:05;;;;;;;;;;;23.90;58.60;;;;;;5041009;28;19920;-75
2021/06/09 04:32:46;;;;;;;;;;;23.90;58.70;;;;;;5043700;28;20041;-75
2021/06/09 04:35:11;;;;;;;;;;;23.90;58.90;;;;;;5044699;28;19916;-77
2021/06/09 04:37:37;;;;;;;;;;;23.90;58.90;;;;;;5050248;28;19920;-75
2021/06/09 04:40:02;;;;;;;;;;;23.90;58.80;;;;;;5049516;28;19928;-77
2021/06/09 04:42:28;;;;;;;;;;;23.90;58.90;;;;;;5048096;28;19917;-76
2021/06/09 04:44:53;;;;;;;;;;;23.90;58.90;;;;;;5067094;28;19954;-77
2021/06/09 04:47:18;;;;;;;;;;;23.90;58.80;;;;;;5059841;28;19920;-77
2021/06/09 04:49:44;;;;;;;;;;;23.90;58.90;;;;;;5031284;28;19916;-77
2021/06/09 04:52:10;;;;;;;;;;;23.90;58.90;;;;;;5073447;28;20427;-76
2021/06/09 04:54:36;;;;;;;;;;;23.90;59.00;;;;;;5048011;28;20522;-76
2021/06/09 04:57:02;;;;;;;;;;;23.90;59.00;;;;;;5047345;28;20381;-75
2021/06/09 04:59:27;;;;;;;;;;;23.80;59.00;;;;;;5048120;28;20343;-77
2021/06/09 05:01:53;;;;;;;;;;;23.80;58.90;;;;;;5062767;28;19925;-75
2021/06/09 05:04:18;;;;;;;;;;;23.80;59.00;;;;;;5031571;28;20050;-74
2021/06/09 05:06:44;;;;;;;;;;;23.80;58.90;;;;;;5070442;28;19932;-73
2021/06/09 05:09:09;;;;;;;;;;;23.80;59.00;;;;;;5074232;28;19916;-72
2021/06/09 05:11:51;;;;;;;;;;;23.80;59.00;;;;;;5031600;22;19968;-60
2021/06/09 05:14:20;;;;;;;;;;;23.80;58.90;;;;;;5025247;28;19943;-60
2021/06/09 05:16:47;;;;;;;;;;;23.80;58.90;;;;;;5019799;28;20012;-61
2021/06/09 05:19:13;;;;;;;;;;;23.80;59.00;;;;;;5031692;28;20003;-60
2021/06/09 05:21:40;;;;;;;;;;;23.80;59.00;;;;;;5020491;28;19917;-60
2021/06/09 05:24:06;;;;;;;;;;;23.80;59.00;;;;;;5021150;28;20634;-60
2021/06/09 05:26:32;;;;;;;;;;;23.80;59.10;;;;;;5019494;28;19932;-60
2021/06/09 05:28:58;;;;;;;;;;;23.80;59.10;;;;;;5021790;28;19921;-59
2021/06/09 05:31:23;;;;;;;;;;;23.80;59.00;;;;;;5019522;28;20641;-60
2021/06/09 05:33:49;;;;;;;;;;;23.80;58.90;;;;;;5018700;28;20090;-61
2021/06/09 05:36:14;;;;;;;;;;;23.80;59.10;;;;;;5031824;28;19955;-61
2021/06/09 05:38:40;;;;;;;;;;;23.80;59.30;;;;;;5040626;28;19920;-61
2021/06/09 05:41:05;;;;;;;;;;;23.80;59.50;;;;;;5038308;28;19923;-61
2021/06/09 05:43:31;;;;;;;;;;;23.80;59.30;;;;;;5032545;28;20445;-61
2021/06/09 05:45:57;;;;;;;;;;;23.80;59.30;;;;;;5034999;28;19928;-61
2021/06/09 05:48:22;;;;;;;;;;;23.80;59.40;;;;;;5020279;28;19933;-60
2021/06/09 05:50:51;;;;;;;;;;;23.80;59.70;;;;;;5031676;28;20026;-62
2021/06/09 05:53:17;;;;;;;;;;;23.70;59.50;;;;;;5031464;28;19917;-59
2021/06/09 05:55:43;;;;;;;;;;;23.80;59.50;;;;;;5027126;28;19996;-60
2021/06/09 05:58:09;;;;;;;;;;;23.80;59.40;;;;;;5044116;28;20158;-60
2021/06/09 06:00:34;;;;;;;;;;;23.80;59.20;;;;;;5032868;28;19938;-60
2021/06/09 06:03:03;;;;;;;;;;;23.80;59.30;;;;;;5019926;28;19967;-60
2021/06/09 06:05:28;;;;;;;;;;;23.70;59.40;;;;;;5028361;28;19929;-60
2021/06/09 06:07:53;;;;;;;;;;;23.70;59.50;;;;;;5021677;28;19939;-60
2021/06/09 06:10:20;;;;;;;;;;;23.70;59.60;;;;;;5021366;28;19917;-59
2021/06/09 06:12:46;;;;;;;;;;;23.70;59.50;;;;;;5035781;28;19917;-59
2021/06/09 06:15:12;;;;;;;;;;;23.80;59.60;;;;;;5033607;28;19913;-61
2021/06/09 06:17:41;;;;;;;;;;;23.70;59.60;;;;;;5039634;28;20464;-61
2021/06/09 06:20:12;;;;;;;;;;;23.80;59.60;;;;;;5033399;28;19952;-60
2021/06/09 06:22:37;;;;;;;;;;;23.80;59.40;;;;;;5032926;28;19913;-61
2021/06/09 06:25:03;;;;;;;;;;;23.80;59.50;;;;;;5020091;28;19925;-59
2021/06/09 06:27:30;;;;;;;;;;;23.80;59.60;;;;;;5043777;28;20416;-59
2021/06/09 06:29:55;;;;;;;;;;;23.80;59.50;;;;;;5023606;28;20289;-60
2021/06/09 06:32:21;;;;;;;;;;;23.80;59.50;;;;;;5039004;28;19917;-60
2021/06/09 06:34:48;;;;;;;;;;;23.70;59.60;;;;;;5038107;28;19912;-59
2021/06/09 06:37:13;;;;;;;;;;;23.80;59.50;;;;;;5040326;28;19919;-59
2021/06/09 06:39:42;;;;;;;;;;;23.80;59.30;;;;;;5040057;28;20084;-61
2021/06/09 06:42:07;;;;;;;;;;;23.80;59.20;;;;;;5030999;28;20290;-60
2021/06/09 06:44:35;;;;;;;;;;;23.70;59.10;;;;;;5033949;28;19917;-61
2021/06/09 06:47:03;;;;;;;;;;;23.70;59.10;;;;;;5032440;28;19933;-61
2021/06/09 06:49:29;;;;;;;;;;;23.70;59.10;;;;;;5030062;28;19951;-59
2021/06/09 06:51:54;;;;;;;;;;;23.70;59.30;;;;;;5033344;28;20378;-60
2021/06/09 06:54:20;;;;;;;;;;;23.70;59.10;;;;;;5019855;28;19924;-61
2021/06/09 06:56:47;;;;;;;;;;;23.70;59.10;;;;;;5032200;28;19913;-61
2021/06/09 06:59:12;;;;;;;;;;;23.70;59.10;;;;;;5028221;28;20707;-62
2021/06/09 07:01:38;;;;;;;;;;;23.70;59.20;;;;;;5026422;28;19921;-60
2021/06/09 07:04:04;;;;;;;;;;;23.70;59.20;;;;;;5023998;28;19923;-60
2021/06/09 07:06:29;;;;;;;;;;;23.70;59.20;;;;;;5026353;28;19947;-61
2021/06/09 07:08:55;;;;;;;;;;;23.70;59.70;;;;;;5049290;28;19948;-60
2021/06/09 07:11:20;;;;;;;;;;;23.70;59.80;;;;;;5040197;28;19991;-61
2021/06/09 07:13:46;;;;;;;;;;;23.70;59.80;;;;;;5038659;28;19921;-61
2021/06/09 07:16:12;;;;;;;;;;;23.70;60.00;;;;;;5033490;28;20007;-61
2021/06/09 07:18:42;;;;;;;;;;;23.70;60.20;;;;;;5032994;28;19917;-61
2021/06/09 07:21:08;;;;;;;;;;;23.70;60.10;;;;;;5036292;28;19913;-61
2021/06/09 07:23:33;;;;;;;;;;;23.70;59.90;;;;;;5026601;28;20748;-61
2021/06/09 07:25:59;;;;;;;;;;;23.70;59.80;;;;;;5033159;28;19924;-59
2021/06/09 07:28:26;;;;;;;;;;;23.70;59.70;;;;;;5021301;28;20402;-59
2021/06/09 07:30:51;;;;;;;;;;;23.70;59.60;;;;;;5050833;28;19917;-60
2021/06/09 07:33:17;;;;;;;;;;;23.70;59.60;;;;;;5039621;28;20535;-59
2021/06/09 07:35:42;;;;;;;;;;;23.70;59.60;;;;;;5022886;28;19914;-63
2021/06/09 07:38:25;;;;;;;;;;;23.70;59.60;;;;;;5030730;28;19914;-60
2021/06/09 07:40:53;;;;;;;;;;;23.70;60.10;;;;;;5035527;28;19982;-61
2021/06/09 07:43:20;;;;;;;;;;;23.60;61.10;;;;;;5037521;28;19913;-59
2021/06/09 07:45:46;;;;;;;;;;;23.60;61.10;;;;;;5053777;28;20536;-60
2021/06/09 07:48:12;;;;;;;;;;;23.60;60.70;;;;;;5034716;28;20605;-59
2021/06/09 07:50:41;;;;;;;;;;;23.50;60.50;;;;;;5040411;28;21207;-58
2021/06/09 07:53:06;;;;;;;;;;;23.50;60.60;;;;;;5024181;28;19932;-61
2021/06/09 07:55:35;;;;;;;;;;;23.50;60.60;;;;;;5037754;28;20745;-61
2021/06/09 07:58:01;;;;;;;;;;;23.50;60.30;;;;;;5022767;28;19917;-60
2021/06/09 08:00:26;;;;;;;;;;;23.60;60.20;;;;;;5033094;28;20033;-61
2021/06/09 08:02:53;;;;;;;;;;;23.60;59.90;;;;;;5040866;28;20007;-59
2021/06/09 08:05:18;;;;;;;;;;;23.60;59.80;;;;;;5021629;28;19925;-60
2021/06/09 08:07:44;;;;;;;;;;;23.60;59.70;;;;;;5042678;28;19920;-60
2021/06/09 08:10:09;;;;;;;;;;;23.60;59.70;;;;;;5039903;28;19918;-60
2021/06/09 08:12:35;;;;;;;;;;;23.60;59.70;;;;;;5041084;28;19921;-61
2021/06/09 08:15:01;;;;;;;;;;;23.60;59.70;;;;;;5028423;28;19920;-59
2021/06/09 08:17:26;;;;;;;;;;;23.60;59.70;;;;;;5033460;28;19937;-59
2021/06/09 08:19:52;;;;;;;;;;;23.60;60.40;;;;;;5032174;28;19955;-60
2021/06/09 08:22:17;;;;;;;;;;;23.60;59.80;;;;;;5037918;28;19920;-59
2021/06/09 08:24:42;;;;;;;;;;;23.60;59.80;;;;;;5023519;28;20107;-60
2021/06/09 08:27:08;;;;;;;;;;;23.60;59.70;;;;;;5028218;28;19924;-61
2021/06/09 08:29:36;;;;;;;;;;;23.60;59.70;;;;;;5021184;28;19922;-60
2021/06/09 08:32:03;;;;;;;;;;;23.60;59.60;;;;;;5027237;28;19983;-61
2021/06/09 08:34:28;;;;;;;;;;;23.60;59.60;;;;;;5032269;28;19920;-59
2021/06/09 08:36:55;;;;;;;;;;;23.60;59.70;;;;;;5029509;28;19917;-61
2021/06/09 08:39:22;;;;;;;;;;;23.60;60.30;;;;;;5022174;28;20005;-61
2021/06/09 08:41:47;;;;;;;;;;;23.60;59.60;;;;;;5028796;28;19920;-61
2021/06/09 08:44:13;;;;;;;;;;;23.60;59.70;;;;;;5036836;28;20289;-61
2021/06/09 08:46:38;;;;;;;;;;;23.60;59.60;;;;;;5039770;28;19964;-59
2021/06/09 08:49:04;;;;;;;;;;;23.60;59.60;;;;;;5023333;28;19920;-60
2021/06/09 08:51:30;;;;;;;;;;;23.60;59.60;;;;;;5039363;28;20619;-60
2021/06/09 08:53:55;;;;;;;;;;;23.60;59.60;;;;;;5041184;28;19960;-60
2021/06/09 08:56:21;;;;;;;;;;;23.50;59.50;;;;;;5040762;28;19912;-60
2021/06/09 08:58:47;;;;;;;;;;;23.60;59.60;;;;;;5031834;28;20414;-59
2021/06/09 09:01:12;;;;;;;;;;;23.60;59.60;;;;;;5029540;28;19921;-60
2021/06/09 09:03:38;;;;;;;;;;;23.60;59.60;;;;;;5037164;28;20387;-58
2021/06/09 09:06:04;;;;;;;;;;;23.60;59.60;;;;;;5040404;28;19917;-59
2021/06/09 09:08:29;;;;;;;;;;;23.60;59.60;;;;;;5030928;28;19917;-59
2021/06/09 09:10:55;;;;;;;;;;;23.50;59.60;;;;;;5031173;28;20324;-57
2021/06/09 09:13:21;;;;;;;;;;;23.50;59.50;;;;;;5028310;28;19923;-60
2021/06/09 09:15:47;;;;;;;;;;;23.50;59.50;;;;;;5025153;28;19944;-64
2021/06/09 09:18:12;;;;;;;;;;;23.50;59.50;;;;;;5030291;28;19916;-58
2021/06/09 09:20:40;;;;;;;;;;;23.50;59.50;;;;;;5040849;28;19931;-60
2021/06/09 09:23:20;;;;;;;;;;;23.50;59.70;;;;;;5041072;28;19978;-59
2021/06/09 09:25:45;;;;;;;;;;;23.50;60.30;;;;;;5035055;28;20285;-60
2021/06/09 09:28:20;;;;;;;;;;;23.60;60.40;;;;;;5020953;28;20008;-60
2021/06/09 09:30:46;;;;;;;;;;;23.50;60.10;;;;;;5037627;28;21102;-59
2021/06/09 09:33:15;;;;;;;;;;;23.50;59.80;;;;;;5038189;28;19925;-59
2021/06/09 09:35:42;;;;;;;;;;;23.50;59.90;;;;;;5029460;28;19925;-61
2021/06/09 09:38:17;;;;;;;;;;;23.50;59.70;;;;;;5021155;28;19967;-60
2021/06/09 09:40:59;;;;;;;;;;;23.50;59.30;;;;;;5026769;28;19921;-59
2021/06/09 09:43:44;;;;;;;;;;;23.50;59.60;;;;;;5029423;28;19924;-59
2021/06/09 09:46:10;;;;;;;;;;;23.50;59.60;;;;;;5019754;28;20303;-60
2021/06/09 09:48:38;;;;;;;;;;;23.50;59.60;;;;;;5041115;28;19920;-61
2021/06/09 09:51:03;;;;;;;;;;;23.50;59.70;;;;;;5024260;28;19925;-59
2021/06/09 09:53:31;;;;;;;;;;;23.50;59.80;;;;;;5043806;28;19913;-59
2021/06/09 09:55:59;;;;;;;;;;;23.50;59.50;;;;;;5034844;28;19936;-60
2021/06/09 09:58:26;;;;;;;;;;;23.50;57.70;;;;;;5034120;28;19917;-58
2021/06/09 10:00:51;;;;;;;;;;;23.50;58.80;;;;;;5037536;28;20058;-59
2021/06/09 10:03:18;;;;;;;;;;;23.50;57.00;;;;;;5020701;28;19914;-59
2021/06/09 10:05:44;;;;;;;;;;;23.50;57.90;;;;;;5022874;28;20418;-61
2021/06/09 10:08:10;;;;;;;;;;;23.50;58.20;;;;;;5035397;28;20008;-60
2021/06/09 10:10:35;;;;;;;;;;;23.40;57.80;;;;;;5030536;28;19948;-59
2021/06/09 10:13:04;;;;;;;;;;;23.50;58.10;;;;;;5043379;28;19917;-60
2021/06/09 10:15:33;;;;;;;;;;;23.50;58.00;;;;;;5028845;28;19920;-60
2021/06/09 10:18:17;;;;;;;;;;;23.50;57.90;;;;;;5024305;28;19913;-60
2021/06/09 10:20:45;;;;;;;;;;;23.40;58.40;;;;;;5024105;28;19927;-59
2021/06/09 10:23:29;;;;;;;;;;;23.40;57.90;;;;;;5027799;28;19966;-60
2021/06/09 10:26:11;;;;;;;;;;;23.40;57.90;;;;;;5039630;28;19917;-59
2021/06/09 10:28:55;;;;;;;;;;;23.30;58.30;;;;;;5028909;28;19921;-60
2021/06/09 10:31:20;;;;;;;;;;;23.30;58.20;;;;;;5019872;28;19953;-60
2021/06/09 10:33:46;;;;;;;;;;;23.30;57.50;;;;;;5034806;28;19996;-60
2021/06/09 10:36:11;;;;;;;;;;;23.30;58.00;;;;;;5024722;28;19920;-59
2021/06/09 10:38:37;;;;;;;;;;;23.40;58.10;;;;;;5036894;28;20613;-59
2021/06/09 10:41:02;;;;;;;;;;;23.40;56.60;;;;;;5038615;28;19917;-59
2021/06/09 10:43:28;;;;;;;;;;;23.40;55.60;;;;;;5023804;28;19917;-59
2021/06/09 10:45:54;;;;;;;;;;;23.30;56.50;;;;;;5042271;28;19920;-59
2021/06/09 10:48:19;;;;;;;;;;;23.30;56.70;;;;;;5032810;28;19917;-60
2021/06/09 10:50:44;;;;;;;;;;;23.40;56.90;;;;;;5023739;28;19917;-58
2021/06/09 10:53:10;;;;;;;;;;;23.30;56.90;;;;;;5053559;28;19948;-59
2021/06/09 10:55:36;;;;;;;;;;;23.30;55.60;;;;;;5038073;28;20302;-57
2021/06/09 10:58:01;;;;;;;;;;;23.20;53.90;;;;;;5044965;28;19967;-60
2021/06/09 11:00:27;;;;;;;;;;;23.30;54.90;;;;;;5041860;28;20558;-59
2021/06/09 11:02:54;;;;;;;;;;;23.20;55.10;;;;;;5038312;28;19917;-59
2021/06/09 11:05:19;;;;;;;;;;;23.30;55.60;;;;;;5058111;28;20053;-60
2021/06/09 11:07:46;;;;;;;;;;;23.30;55.60;;;;;;5039071;28;19956;-58
2021/06/09 11:10:12;;;;;;;;;;;23.30;55.90;;;;;;5021719;28;20031;-58
2021/06/09 11:12:37;;;;;;;;;;;23.30;56.00;;;;;;5022956;28;19917;-60
2021/06/09 11:15:07;;;;;;;;;;;23.30;56.20;;;;;;5023172;28;20437;-59
2021/06/09 11:17:40;;;;;;;;;;;23.30;56.40;;;;;;5031437;28;19917;-56
2021/06/09 11:20:22;;;;;;;;;;;23.30;57.10;;;;;;5029681;28;20035;-60
2021/06/09 11:22:51;;;;;;;;;;;23.30;57.20;;;;;;5019385;28;19960;-60
2021/06/09 11:25:18;;;;;;;;;;;23.30;57.10;;;;;;5023277;28;19917;-61
2021/06/09 11:27:53;;;;;;;;;;;23.30;57.10;;;;;;5026098;28;20268;-60
2021/06/09 11:30:24;;;;;;;;;;;23.30;57.10;;;;;;5020283;28;19917;-61
2021/06/09 11:32:50;;;;;;;;;;;23.30;57.60;;;;;;5037818;28;19923;-59
2021/06/09 11:35:16;;;;;;;;;;;23.30;57.50;;;;;;5041684;28;19995;-61
2021/06/09 11:37:41;;;;;;;;;;;23.30;57.70;;;;;;5028390;28;19928;-61
2021/06/09 11:40:07;;;;;;;;;;;23.30;57.70;;;;;;5036885;28;19917;-60
2021/06/09 11:42:32;;;;;;;;;;;23.30;57.60;;;;;;5032627;28;19990;-60
2021/06/09 11:45:20;;;;;;;;;;;23.30;57.70;;;;;;5023331;28;20345;-58
2021/06/09 11:47:46;;;;;;;;;;;23.30;57.80;;;;;;5028393;28;19982;-59
2021/06/09 11:50:24;;;;;;;;;;;23.30;57.90;;;;;;5037564;28;19928;-59
2021/06/09 11:52:56;;;;;;;;;;;23.30;57.90;;;;;;5040816;28;19921;-59
2021/06/09 11:55:24;;;;;;;;;;;23.30;58.00;;;;;;5030793;28;19913;-61
2021/06/09 11:58:06;;;;;;;;;;;23.30;58.10;;;;;;5035859;28;19917;-59
2021/06/09 12:00:31;;;;;;;;;;;23.30;58.20;;;;;;5021937;28;19921;-60
2021/06/09 12:03:15;;;;;;;;;;;23.30;58.20;;;;;;5021943;28;19917;-60
2021/06/09 12:05:41;;;;;;;;;;;23.30;58.20;;;;;;5034587;28;19917;-61
2021/06/09 12:08:12;;;;;;;;;;;23.30;58.20;;;;;;5026405;28;20346;-59
2021/06/09 12:10:38;;;;;;;;;;;23.30;58.30;;;;;;5021286;28;20008;-60
2021/06/09 12:13:03;;;;;;;;;;;23.40;58.20;;;;;;5031160;28;19927;-60
2021/06/09 12:15:28;;;;;;;;;;;23.30;57.90;;;;;;5034458;28;19979;-60
2021/06/09 12:17:54;;;;;;;;;;;23.40;58.30;;;;;;5020348;28;20007;-58
2021/06/09 12:20:20;;;;;;;;;;;23.30;58.40;;;;;;5039268;28;19920;-60
2021/06/09 12:22:52;;;;;;;;;;;23.30;58.40;;;;;;5042257;28;20361;-61
2021/06/09 12:25:18;;;;;;;;;;;23.30;58.30;;;;;;5030526;28;19925;-61
2021/06/09 12:27:58;;;;;;;;;;;23.30;58.40;;;;;;5020439;28;19917;-61
2021/06/09 12:30:24;;;;;;;;;;;23.30;58.60;;;;;;5021047;28;19917;-59
2021/06/09 12:32:50;;;;;;;;;;;23.30;58.60;;;;;;5022373;28;19917;-59
2021/06/09 12:35:16;;;;;;;;;;;23.30;58.40;;;;;;5037067;28;19920;-60
2021/06/09 12:37:45;;;;;;;;;;;23.30;58.40;;;;;;5026563;28;19917;-60
2021/06/09 12:40:11;;;;;;;;;;;23.30;58.10;;;;;;5041204;28;19917;-59
2021/06/09 12:42:37;;;;;;;;;;;23.30;58.20;;;;;;5036671;28;19920;-61
2021/06/09 12:45:06;;;;;;;;;;;23.30;58.30;;;;;;5032628;28;20323;-60
2021/06/09 12:47:36;;;;;;;;;;;23.30;58.30;;;;;;5032841;28;20512;-60
2021/06/09 12:50:14;;;;;;;;;;;23.30;57.60;;;;;;5028048;28;19960;-60
2021/06/09 12:52:40;;;;;;;;;;;23.40;57.40;;;;;;5041042;28;19913;-59
2021/06/09 12:55:09;;;;;;;;;;;23.40;57.40;;;;;;5032042;28;19996;-60
2021/06/09 12:57:35;;;;;;;;;;;23.40;57.20;;;;;;5039805;28;19993;-60
2021/06/09 13:00:02;;;;;;;;;;;23.30;57.50;;;;;;5040591;28;19999;-61
2021/06/09 13:02:27;;;;;;;;;;;23.30;57.40;;;;;;5038750;28;19913;-59
2021/06/09 13:04:53;;;;;;;;;;;23.30;57.60;;;;;;5026520;28;19932;-59
2021/06/09 13:07:22;;;;;;;;;;;23.30;57.60;;;;;;5022034;28;19917;-59
2021/06/09 13:09:55;;;;;;;;;;;23.30;56.00;;;;;;5025898;28;20322;-59
2021/06/09 13:12:27;;;;;;;;;;;23.30;57.00;;;;;;5028838;28;20694;-59
2021/06/09 13:14:53;;;;;;;;;;;23.40;58.20;;;;;;5030050;28;19917;-59
2021/06/09 13:17:18;;;;;;;;;;;23.40;57.70;;;;;;5040073;28;19920;-59
2021/06/09 13:19:43;;;;;;;;;;;23.40;58.00;;;;;;5023263;28;19927;-60
2021/06/09 13:22:09;;;;;;;;;;;23.40;58.30;;;;;;5030184;28;20374;-59
2021/06/09 13:24:36;;;;;;;;;;;23.30;58.20;;;;;;5028738;28;19913;-60
2021/06/09 13:27:05;;;;;;;;;;;23.30;58.20;;;;;;5043446;28;19917;-58
2021/06/09 13:29:35;;;;;;;;;;;23.30;58.60;;;;;;5040415;28;19923;-59
2021/06/09 13:32:08;;;;;;;;;;;23.30;58.50;;;;;;5034483;28;20382;-59
2021/06/09 13:34:34;;;;;;;;;;;23.30;58.40;;;;;;5035297;28;20481;-59
2021/06/09 13:37:00;;;;;;;;;;;23.40;58.20;;;;;;5037402;28;19920;-59
2021/06/09 13:39:27;;;;;;;;;;;23.30;58.30;;;;;;5056041;22;19924;-67
2021/06/09 13:41:52;;;;;;;;;;;23.30;58.40;;;;;;5060441;28;19999;-67
2021/06/09 13:44:18;;;;;;;;;;;23.30;58.60;;;;;;5044734;28;20792;-67
2021/06/09 13:46:44;;;;;;;;;;;23.30;58.50;;;;;;5045006;28;19924;-66
2021/06/09 13:49:09;;;;;;;;;;;23.40;57.90;;;;;;5062135;28;19909;-66
2021/06/09 13:51:38;;;;;;;;;;;23.40;58.30;;;;;;5039222;28;19913;-67
2021/06/09 13:54:06;;;;;;;;;;;23.40;58.20;;;;;;5043579;28;20459;-69
2021/06/09 13:56:40;;;;;;;;;;;23.30;58.30;;;;;;5043956;28;19924;-67
2021/06/09 13:59:12;;;;;;;;;;;23.40;58.10;;;;;;5052202;28;19912;-66
2021/06/09 14:01:38;;;;;;;;;;;23.30;58.40;;;;;;5063942;28;19944;-67
2021/06/09 14:04:04;;;;;;;;;;;23.30;58.40;;;;;;5050488;28;19948;-65
2021/06/09 14:06:29;;;;;;;;;;;23.30;58.40;;;;;;5029149;28;19981;-65
2021/06/09 14:09:06;;;;;;;;;;;23.40;58.00;;;;;;5037493;28;20378;-68
2021/06/09 14:11:31;;;;;;;;;;;23.40;56.70;;;;;;5046761;28;19916;-68
2021/06/09 14:13:57;;;;;;;;;;;23.40;57.40;;;;;;5048037;22;19924;-63
2021/06/09 14:16:22;;;;;;;;;;;23.40;57.70;;;;;;5052472;28;19920;-61